createdAt,value
2019-03-01T00:02:13.971Z,83.50
2019-03-01T00:05:31.714Z,88.37
2019-03-01T00:08:10.502Z,83.83
2019-03-01T00:10:52.807Z,85.13
2019-03-01T00:14:06.869Z,84.03
2019-03-01T00:17:09.457Z,77.80
2019-03-01T00:19:56.758Z,79.67
2019-03-01T00:22:52.422Z,82.27
2019-03-01T00:26:08.677Z,76.90
2019-03-01T00:29:11.758Z,82.90
2019-03-01T00:32:25.979Z,77.17
2019-03-01T00:35:30.232Z,77.20
2019-03-01T00:38:38.779Z,82.27
2019-03-01T00:41:17.771Z,84.00
2019-03-01T00:44:18.173Z,82.20
2019-03-01T00:46:46.166Z,80.70
2019-03-01T00:49:14.074Z,77.93
2019-03-01T00:51:42.007Z,75.93
2019-03-01T00:54:10.066Z,80.95
2019-03-01T00:56:37.913Z,84.07
2019-03-01T00:59:06.472Z,76.70
2019-03-01T01:01:34.507Z,84.47
2019-03-01T01:04:02.385Z,84.60
2019-03-01T01:06:30.913Z,89.07
2019-03-01T01:08:58.757Z,85.83
2019-03-01T01:11:26.563Z,86.75
2019-03-01T01:13:55.010Z,83.70
2019-03-01T01:16:22.918Z,83.73
2019-03-01T01:18:50.805Z,86.17
2019-03-01T01:21:18.704Z,79.63
2019-03-01T01:23:46.652Z,79.53
2019-03-01T01:26:14.692Z,82.10
2019-03-01T01:28:42.626Z,74.00
2019-03-01T01:31:10.563Z,75.93
2019-03-01T01:33:38.354Z,79.37
2019-03-01T01:36:06.365Z,76.37
2019-03-01T01:38:34.423Z,73.57
2019-03-01T01:41:02.330Z,81.47
2019-03-01T01:43:30.893Z,74.93
2019-03-01T01:45:58.927Z,87.93
2019-03-01T01:48:26.809Z,78.33
2019-03-01T01:50:54.995Z,74.23
2019-03-01T01:53:22.872Z,81.53
2019-03-01T01:55:50.781Z,80.87
2019-03-01T01:58:18.667Z,81.33
2019-03-01T02:00:46.678Z,79.90
2019-03-01T02:03:14.651Z,87.20
2019-03-01T02:05:43.013Z,82.10
2019-03-01T02:08:10.954Z,78.37
2019-03-01T02:10:39.155Z,79.37
2019-03-01T02:13:06.994Z,78.33
2019-03-01T02:15:34.887Z,82.07
2019-03-01T02:18:03.222Z,76.27
2019-03-01T02:20:31.208Z,76.13
2019-03-01T02:22:59.257Z,81.53
2019-03-01T02:25:27.646Z,78.00
2019-03-01T02:27:55.555Z,77.33
2019-03-01T02:30:24.972Z,73.83
2019-03-01T02:32:52.865Z,76.17
2019-03-01T02:35:22.713Z,70.53
2019-03-01T02:37:50.752Z,72.27
2019-03-01T02:40:18.806Z,75.62
2019-03-01T02:42:46.863Z,72.73
2019-03-01T02:45:16.543Z,76.00
2019-03-01T02:47:44.487Z,76.37
2019-03-01T02:50:13.308Z,79.93
2019-03-01T02:52:41.304Z,73.97
2019-03-01T02:55:10.995Z,74.73
2019-03-01T02:57:38.917Z,71.87
2019-03-01T03:00:10.225Z,74.23
2019-03-01T03:02:44.181Z,73.23
2019-03-01T03:05:12.167Z,69.53
2019-03-01T03:08:11.631Z,77.13
2019-03-01T03:10:39.486Z,67.63
2019-03-01T03:13:08.996Z,67.17
2019-03-01T03:15:41.953Z,71.70
2019-03-01T03:18:09.873Z,66.72
2019-03-01T03:20:38.247Z,71.87
2019-03-01T03:23:06.395Z,70.40
2019-03-01T03:25:34.255Z,67.17
2019-03-01T03:28:02.174Z,66.95
2019-03-01T03:30:30.151Z,71.25
2019-03-01T03:32:58.168Z,73.30
2019-03-01T03:35:26.352Z,71.77
2019-03-01T03:37:54.276Z,64.85
2019-03-01T03:40:22.231Z,71.23
2019-03-01T03:42:50.230Z,71.62
2019-03-01T03:45:18.247Z,70.13
2019-03-01T03:47:46.298Z,71.27
2019-03-01T03:50:14.370Z,67.95
2019-03-01T03:52:42.352Z,74.42
2019-03-01T03:55:11.557Z,75.13
2019-03-01T03:57:39.556Z,72.03
2019-03-01T04:00:11.627Z,82.10
2019-03-01T04:02:39.649Z,74.32
2019-03-01T04:05:07.651Z,82.62
2019-03-01T04:07:36.084Z,79.77
2019-03-01T04:10:04.724Z,110.60
2019-03-01T04:12:32.652Z,112.47
2019-03-01T04:15:00.485Z,119.27
2019-03-01T04:17:28.568Z,110.83
2019-03-01T04:19:56.400Z,114.67
2019-03-01T04:22:24.157Z,101.30
2019-03-01T04:24:51.973Z,100.05
2019-03-01T04:27:19.725Z,98.57
2019-03-01T04:29:47.730Z,92.07
2019-03-01T04:32:16.288Z,89.20
2019-03-01T04:34:44.101Z,86.27
2019-03-01T04:37:11.878Z,91.40
2019-03-01T04:39:39.675Z,102.30
2019-03-01T04:42:07.444Z,99.63
2019-03-01T04:44:35.289Z,100.50
2019-03-01T04:47:03.260Z,100.37
2019-03-01T04:49:31.218Z,87.80
2019-03-01T04:51:59.160Z,85.17
2019-03-01T04:54:27.090Z,75.72
2019-03-01T04:56:54.857Z,75.50
2019-03-01T04:59:22.757Z,74.07
2019-03-01T05:01:50.524Z,80.13
2019-03-01T05:04:18.357Z,78.57
2019-03-01T05:06:52.564Z,71.77
2019-03-01T05:09:20.401Z,76.20
2019-03-01T05:11:48.180Z,81.80
2019-03-01T05:14:16.081Z,72.10
2019-03-01T05:16:43.983Z,73.45
2019-03-01T05:19:11.796Z,75.85
2019-03-01T05:21:39.585Z,77.92
2019-03-01T05:24:07.431Z,72.62
2019-03-01T05:26:35.221Z,69.97
2019-03-01T05:29:03.938Z,67.80
2019-03-01T05:31:32.293Z,65.28
2019-03-01T05:34:00.120Z,64.55
2019-03-01T05:36:27.906Z,67.17
2019-03-01T05:38:55.821Z,70.17
2019-03-01T05:41:23.708Z,60.85
2019-03-01T05:43:53.433Z,65.83
2019-03-01T05:46:21.272Z,67.05
2019-03-01T05:48:49.182Z,65.08
2019-03-01T05:51:21.058Z,65.20
2019-03-01T05:53:49.402Z,65.85
2019-03-01T05:56:17.196Z,68.62
2019-03-01T05:58:47.594Z,68.25
2019-03-01T06:01:55.194Z,69.60
2019-03-01T06:04:32.872Z,63.13
2019-03-01T06:07:17.467Z,64.03
2019-03-01T06:10:18.924Z,67.87
2019-03-01T06:13:09.520Z,66.40
2019-03-01T06:16:04.625Z,67.70
2019-03-01T06:19:05.701Z,65.08
2019-03-01T06:22:16.738Z,68.07
2019-03-01T06:24:55.683Z,67.87
2019-03-01T06:27:58.632Z,72.00
2019-03-01T06:31:01.890Z,69.85
2019-03-01T06:34:02.001Z,77.90
2019-03-01T06:36:59.163Z,73.02
2019-03-01T06:40:41.430Z,64.10
2019-03-01T06:43:22.454Z,63.23
2019-03-01T06:46:29.759Z,62.45
2019-03-01T06:49:16.974Z,68.90
2019-03-01T06:51:44.816Z,62.27
2019-03-01T06:54:12.847Z,71.37
2019-03-01T06:56:40.688Z,62.40
2019-03-01T06:59:08.453Z,65.78
2019-03-01T07:01:44.098Z,66.77
2019-03-01T07:04:15.742Z,65.63
2019-03-01T07:06:43.682Z,69.25
2019-03-01T07:09:11.685Z,59.25
2019-03-01T07:11:39.644Z,62.43
2019-03-01T07:14:07.428Z,63.73
2019-03-01T07:16:36.073Z,55.58
2019-03-01T07:19:04.067Z,65.77
2019-03-01T07:21:32.011Z,59.35
2019-03-01T07:23:59.804Z,60.50
2019-03-01T07:26:27.621Z,62.53
2019-03-01T07:28:55.660Z,57.43
2019-03-01T07:31:23.613Z,61.08
2019-03-01T07:33:51.431Z,55.70
2019-03-01T07:36:19.287Z,61.70
2019-03-01T07:38:47.203Z,61.03
2019-03-01T07:41:15.760Z,59.37
2019-03-01T07:43:43.607Z,61.33
2019-03-01T07:46:11.490Z,57.20
2019-03-01T07:48:39.336Z,55.08
2019-03-01T07:51:07.238Z,56.67
2019-03-01T07:53:41.748Z,62.62
2019-03-01T07:56:06.888Z,65.78
2019-03-01T07:58:34.727Z,62.58
2019-03-01T08:01:02.816Z,63.35
2019-03-01T08:03:30.718Z,60.85
2019-03-01T08:05:58.600Z,63.17
2019-03-01T08:08:26.461Z,66.37
2019-03-01T08:10:56.567Z,66.35
2019-03-01T08:13:27.022Z,57.03
2019-03-01T08:15:54.973Z,65.55
2019-03-01T08:18:22.945Z,62.20
2019-03-01T08:20:50.744Z,61.47
2019-03-01T08:23:18.800Z,63.87
2019-03-01T08:25:46.582Z,66.02
2019-03-01T08:28:14.522Z,67.47
2019-03-01T08:30:45.760Z,67.17
2019-03-01T08:33:13.243Z,60.40
2019-03-01T08:35:41.024Z,65.57
2019-03-01T08:38:08.969Z,62.23
2019-03-01T08:40:37.325Z,66.62
2019-03-01T08:43:11.750Z,76.25
2019-03-01T08:45:35.219Z,62.27
2019-03-01T08:48:03.197Z,76.02
2019-03-01T08:50:31.163Z,73.50
2019-03-01T08:53:03.257Z,70.97
2019-03-01T08:55:31.842Z,73.73
2019-03-01T08:58:03.430Z,77.27
2019-03-01T09:00:31.003Z,80.15
2019-03-01T09:03:02.608Z,75.90
2019-03-01T09:05:30.509Z,72.00
2019-03-01T09:07:58.543Z,70.85
2019-03-01T09:10:29.193Z,75.17
2019-03-01T09:12:56.120Z,72.67
2019-03-01T09:15:24.089Z,72.50
2019-03-01T09:17:51.910Z,73.83
2019-03-01T09:20:19.660Z,75.33
2019-03-01T09:22:47.896Z,71.43
2019-03-01T09:25:16.558Z,68.70
2019-03-01T09:27:44.403Z,70.25
2019-03-01T09:30:16.033Z,71.03
2019-03-01T09:32:43.979Z,67.32
2019-03-01T09:35:31.379Z,75.08
2019-03-01T09:37:59.604Z,69.95
2019-03-01T09:40:28.873Z,75.35
2019-03-01T09:42:57.394Z,70.50
2019-03-01T09:45:25.335Z,72.10
2019-03-01T09:47:53.299Z,69.27
2019-03-01T09:50:21.343Z,70.72
2019-03-01T09:52:49.141Z,79.03
2019-03-01T09:55:17.255Z,69.73
2019-03-01T09:57:45.219Z,70.10
2019-03-01T10:00:13.914Z,68.27
2019-03-01T10:02:41.805Z,72.37
2019-03-01T10:05:11.316Z,47.53
2019-03-01T10:07:39.203Z,39.27
2019-03-01T10:10:09.341Z,51.77
2019-03-01T10:12:37.106Z,50.17
2019-03-01T10:15:06.255Z,51.45
2019-03-01T10:17:34.846Z,48.70
2019-03-01T10:20:03.375Z,50.20
2019-03-01T10:22:31.312Z,52.70
2019-03-01T10:24:59.248Z,58.73
2019-03-01T10:27:27.037Z,53.23
2019-03-01T10:29:54.930Z,50.53
2019-03-01T10:32:22.748Z,55.87
2019-03-01T10:34:50.583Z,53.77
2019-03-01T10:37:18.434Z,55.93
2019-03-01T10:39:52.800Z,55.77
2019-03-01T10:42:16.046Z,59.83
2019-03-01T10:44:43.995Z,50.37
2019-03-01T10:47:11.853Z,53.80
2019-03-01T10:49:39.784Z,48.63
2019-03-01T10:52:07.652Z,60.00
2019-03-01T10:54:35.536Z,56.03
2019-03-01T10:57:03.488Z,54.07
2019-03-01T10:59:31.337Z,63.10
2019-03-01T11:01:59.186Z,50.07
2019-03-01T11:04:27.132Z,58.20
2019-03-01T11:06:55.898Z,62.23
2019-03-01T11:09:23.719Z,67.17
2019-03-01T11:11:51.664Z,67.20
2019-03-01T11:14:19.608Z,74.97
2019-03-01T11:16:47.467Z,67.63
2019-03-01T11:19:15.283Z,76.13
2019-03-01T11:21:43.953Z,78.50
2019-03-01T11:24:11.750Z,81.07
2019-03-01T11:26:39.610Z,73.13
2019-03-01T11:29:07.474Z,71.30
2019-03-01T11:31:35.672Z,75.37
2019-03-01T11:34:03.665Z,76.70
2019-03-01T11:36:31.464Z,86.13
2019-03-01T11:38:59.239Z,77.73
2019-03-01T11:41:27.168Z,80.93
2019-03-01T11:43:54.924Z,85.83
2019-03-01T11:46:23.001Z,77.93
2019-03-01T11:48:51.445Z,79.03
2019-03-01T11:51:25.439Z,77.70
2019-03-01T11:53:53.268Z,80.77
2019-03-01T11:56:21.157Z,95.23
2019-03-01T11:58:49.013Z,92.97
2019-03-01T12:01:17.590Z,90.07
2019-03-01T12:03:45.603Z,73.33
2019-03-01T12:06:13.514Z,74.73
2019-03-01T12:08:41.391Z,69.07
2019-03-01T12:11:10.190Z,68.60
2019-03-01T12:13:37.986Z,71.63
2019-03-01T12:16:05.913Z,71.97
2019-03-01T12:18:33.783Z,71.30
2019-03-01T12:21:01.592Z,75.30
2019-03-01T12:23:29.348Z,69.53
2019-03-01T12:25:57.212Z,72.83
2019-03-01T12:28:24.992Z,67.53
2019-03-01T12:30:52.941Z,69.63
2019-03-01T12:33:21.792Z,64.13
2019-03-01T12:35:50.497Z,65.73
2019-03-01T12:38:18.288Z,58.17
2019-03-01T12:40:46.299Z,59.60
2019-03-01T12:43:14.291Z,63.30
2019-03-01T12:45:42.703Z,65.32
2019-03-01T12:48:11.373Z,58.17
2019-03-01T12:50:39.190Z,63.02
2019-03-01T12:53:06.984Z,63.63
2019-03-01T12:55:34.964Z,65.80
2019-03-01T12:58:02.853Z,60.08
2019-03-01T13:00:30.937Z,64.07
2019-03-01T13:02:58.783Z,66.20
2019-03-01T13:05:29.118Z,64.83
2019-03-01T13:07:56.397Z,63.17
2019-03-01T13:10:25.824Z,69.53
2019-03-01T13:12:54.651Z,62.77
2019-03-01T13:15:22.853Z,62.10
2019-03-01T13:17:50.889Z,67.07
2019-03-01T13:20:18.737Z,62.10
2019-03-01T13:22:46.746Z,64.45
2019-03-01T13:25:15.745Z,65.80
2019-03-01T13:27:44.286Z,61.10
2019-03-01T13:30:17.018Z,62.00
2019-03-01T13:32:45.106Z,62.23
2019-03-01T13:35:13.479Z,64.63
2019-03-01T13:37:41.541Z,67.60
2019-03-01T13:40:11.780Z,64.53
2019-03-01T13:42:39.727Z,66.17
2019-03-01T13:45:11.858Z,59.00
2019-03-01T13:47:40.667Z,64.50
2019-03-01T13:50:09.908Z,68.25
2019-03-01T13:52:37.862Z,66.37
2019-03-01T13:55:06.140Z,66.30
2019-03-01T13:57:37.331Z,65.67
2019-03-01T14:00:06.111Z,66.97
2019-03-01T14:02:34.028Z,69.77
2019-03-01T14:05:01.901Z,65.08
2019-03-01T14:07:29.866Z,63.42
2019-03-01T14:10:00.880Z,62.57
2019-03-01T14:12:27.360Z,61.88
2019-03-01T14:14:55.166Z,64.25
2019-03-01T14:17:24.600Z,58.78
2019-03-01T14:19:53.234Z,60.23
2019-03-01T14:22:21.178Z,60.03
2019-03-01T14:24:48.961Z,63.75
2019-03-01T14:27:16.913Z,61.90
2019-03-01T14:29:44.706Z,60.23
2019-03-01T14:32:15.301Z,64.42
2019-03-01T14:34:47.720Z,70.10
2019-03-01T14:37:15.106Z,67.03
2019-03-01T14:39:45.391Z,71.73
2019-03-01T14:42:11.840Z,64.67
2019-03-01T14:44:39.633Z,60.88
2019-03-01T14:47:07.683Z,68.37
2019-03-01T14:49:35.564Z,63.38
2019-03-01T14:52:03.599Z,65.97
2019-03-01T14:54:31.481Z,56.33
2019-03-01T14:57:10.688Z,60.23
2019-03-01T15:00:14.183Z,61.42
2019-03-01T15:03:15.919Z,59.93
2019-03-01T15:05:42.026Z,64.97
2019-03-01T15:08:10.126Z,77.72
2019-03-01T15:10:38.015Z,166.18
2019-03-01T15:13:05.944Z,109.50
2019-03-01T15:15:33.937Z,94.10
2019-03-01T15:18:01.977Z,104.95
2019-03-01T15:20:30.643Z,107.80
2019-03-01T15:22:58.486Z,110.40
2019-03-01T15:25:26.386Z,70.72
2019-03-01T15:27:55.510Z,59.08
2019-03-01T15:30:23.387Z,66.25
2019-03-01T15:32:52.574Z,64.77
2019-03-01T15:35:20.575Z,66.62
2019-03-01T15:37:48.519Z,69.53
2019-03-01T15:40:16.590Z,61.75
2019-03-01T15:42:44.375Z,61.10
2019-03-01T15:45:12.616Z,61.77
2019-03-01T15:47:40.439Z,64.30
2019-03-01T15:50:09.044Z,84.95
2019-03-01T15:52:36.916Z,81.85
2019-03-01T15:55:07.726Z,77.90
2019-03-01T15:57:35.664Z,70.60
2019-03-01T16:00:04.424Z,64.03
2019-03-01T16:02:32.272Z,65.55
2019-03-01T16:05:00.345Z,64.10
2019-03-01T16:07:29.011Z,69.17
2019-03-01T16:10:01.100Z,59.67
2019-03-01T16:12:29.000Z,69.50
2019-03-01T16:15:00.570Z,63.00
2019-03-01T16:17:28.528Z,65.87
2019-03-01T16:19:56.452Z,62.80
2019-03-01T16:22:24.340Z,65.60
2019-03-01T16:24:52.194Z,66.85
2019-03-01T16:27:20.311Z,64.37
2019-03-01T16:29:49.102Z,68.17
2019-03-01T16:32:16.965Z,63.68
2019-03-01T16:34:44.887Z,66.27
2019-03-01T16:37:12.789Z,59.05
2019-03-01T16:39:40.636Z,66.55
2019-03-01T16:42:08.733Z,71.07
2019-03-01T16:44:36.598Z,75.72
2019-03-01T16:47:06.695Z,76.35
2019-03-01T16:49:34.296Z,77.27
2019-03-01T16:52:02.279Z,77.95
2019-03-01T16:54:30.158Z,76.40
2019-03-01T16:56:58.024Z,65.08
2019-03-01T16:59:25.849Z,67.08
2019-03-01T17:01:53.631Z,70.90
2019-03-01T17:04:32.647Z,72.05
2019-03-01T17:07:01.020Z,68.57
2019-03-01T17:09:28.836Z,64.03
2019-03-01T17:11:56.726Z,70.47
2019-03-01T17:14:24.645Z,67.32
2019-03-01T17:16:52.408Z,76.80
2019-03-01T17:19:23.444Z,77.05
2019-03-01T17:21:51.785Z,74.95
2019-03-01T17:24:19.762Z,75.08
2019-03-01T17:26:47.574Z,76.95
2019-03-01T17:29:15.498Z,75.83
2019-03-01T17:31:43.398Z,73.50
2019-03-01T17:34:11.395Z,74.90
2019-03-01T17:36:40.075Z,73.67
2019-03-01T17:39:08.140Z,89.20
2019-03-01T17:41:36.004Z,79.25
2019-03-01T17:44:08.189Z,83.03
2019-03-01T17:46:35.449Z,81.00
2019-03-01T17:49:03.352Z,79.58
2019-03-01T17:51:31.186Z,83.92
2019-03-01T17:53:59.065Z,96.53
2019-03-01T17:56:27.096Z,100.65
2019-03-01T17:58:55.952Z,121.28
2019-03-01T18:01:23.895Z,114.08
2019-03-01T18:03:51.803Z,122.92
2019-03-01T18:06:22.216Z,127.45
2019-03-01T18:08:50.208Z,114.05
2019-03-01T18:11:18.166Z,95.50
2019-03-01T18:13:46.059Z,90.17
2019-03-01T18:16:13.888Z,84.10
2019-03-01T18:18:42.660Z,80.30
2019-03-01T18:21:13.070Z,93.42
2019-03-01T18:23:40.223Z,83.42
2019-03-01T18:26:08.212Z,79.90
2019-03-01T18:28:36.020Z,85.10
2019-03-01T18:31:04.066Z,78.78
2019-03-01T18:33:31.958Z,88.42
2019-03-01T18:35:59.841Z,80.03
2019-03-01T18:38:31.313Z,80.22
2019-03-01T18:40:57.692Z,73.47
2019-03-01T18:43:25.583Z,78.72
2019-03-01T18:45:54.095Z,75.92
2019-03-01T18:48:21.971Z,88.27
2019-03-01T18:50:49.789Z,121.87
2019-03-01T18:53:18.384Z,114.25
2019-03-01T18:55:46.300Z,133.32
2019-03-01T18:58:14.968Z,110.30
2019-03-01T19:00:43.407Z,92.55
2019-03-01T19:03:11.227Z,83.87
2019-03-01T19:05:40.024Z,82.12
2019-03-01T19:08:11.706Z,74.87
2019-03-01T19:10:40.560Z,75.25
2019-03-01T19:13:08.566Z,77.95
2019-03-01T19:15:36.528Z,84.52
2019-03-01T19:18:04.573Z,89.28
2019-03-01T19:20:32.805Z,120.62
2019-03-01T19:23:00.873Z,120.57
2019-03-01T19:25:28.850Z,254.63
2019-03-01T19:27:57.501Z,227.82
2019-03-01T19:30:25.502Z,149.63
2019-03-01T19:32:53.513Z,211.35
2019-03-01T19:35:28.308Z,168.65
2019-03-01T19:37:51.308Z,178.73
2019-03-01T19:40:19.215Z,116.77
2019-03-01T19:42:47.266Z,86.60
2019-03-01T19:45:15.872Z,85.13
2019-03-01T19:47:43.903Z,82.30
2019-03-01T19:50:14.136Z,81.75
2019-03-01T19:52:43.396Z,80.07
2019-03-01T19:55:12.701Z,80.12
2019-03-01T19:57:40.742Z,105.40
2019-03-01T20:00:12.047Z,118.73
2019-03-01T20:02:40.719Z,129.42
2019-03-01T20:05:10.751Z,113.20
2019-03-01T20:07:39.007Z,82.60
2019-03-01T20:10:08.406Z,82.40
2019-03-01T20:12:40.500Z,75.40
2019-03-01T20:15:11.250Z,82.78
2019-03-01T20:17:44.405Z,67.43
2019-03-01T20:20:11.244Z,87.87
2019-03-01T20:22:39.256Z,100.82
2019-03-01T20:25:09.198Z,86.35
2019-03-01T20:27:39.070Z,83.37
2019-03-01T20:30:11.157Z,88.22
2019-03-01T20:32:39.431Z,83.67
2019-03-01T20:35:09.678Z,84.97
2019-03-01T20:37:39.941Z,84.50
2019-03-01T20:40:09.806Z,87.65
2019-03-01T20:42:37.716Z,80.92
2019-03-01T20:45:09.134Z,88.22
2019-03-01T20:47:37.159Z,86.70
2019-03-01T20:50:05.398Z,84.13
2019-03-01T20:52:34.813Z,81.30
2019-03-01T20:55:03.240Z,81.90
2019-03-01T20:57:31.193Z,76.37
2019-03-01T20:59:59.186Z,81.42
2019-03-01T21:02:27.149Z,71.15
2019-03-01T21:04:55.066Z,78.92
2019-03-01T21:07:22.930Z,75.95
2019-03-01T21:09:50.798Z,69.40
2019-03-01T21:12:18.730Z,75.95
2019-03-01T21:14:46.637Z,81.45
2019-03-01T21:17:16.855Z,79.82
2019-03-01T21:19:44.629Z,83.97
2019-03-01T21:22:12.721Z,94.32
2019-03-01T21:24:42.522Z,85.22
2019-03-01T21:27:10.777Z,89.85
2019-03-01T21:29:38.685Z,95.05
2019-03-01T21:32:06.570Z,87.55
2019-03-01T21:34:34.873Z,86.92
2019-03-01T21:37:04.190Z,82.80
2019-03-01T21:39:32.111Z,86.90
2019-03-01T21:41:59.897Z,77.78
2019-03-01T21:44:27.828Z,68.90
2019-03-01T21:46:55.634Z,80.50
2019-03-01T21:49:23.510Z,82.12
2019-03-01T21:51:51.738Z,79.62
2019-03-01T21:54:21.150Z,94.30
2019-03-01T21:56:55.977Z,97.40
2019-03-01T21:59:18.883Z,93.52
2019-03-01T22:01:46.627Z,94.35
2019-03-01T22:04:14.430Z,106.43
2019-03-01T22:06:42.304Z,130.22
2019-03-01T22:09:11.141Z,125.65
2019-03-01T22:11:38.886Z,117.67
2019-03-01T22:14:07.588Z,105.92
2019-03-01T22:16:39.295Z,99.80
2019-03-01T22:19:07.244Z,98.70
2019-03-01T22:21:35.118Z,102.72
2019-03-01T22:24:03.029Z,101.42
2019-03-01T22:26:30.989Z,98.35
2019-03-01T22:28:58.806Z,98.52
2019-03-01T22:31:26.585Z,101.67
2019-03-01T22:33:55.864Z,93.17
2019-03-01T22:36:24.237Z,99.10
2019-03-01T22:38:52.059Z,101.82
2019-03-01T22:41:19.842Z,102.35
2019-03-01T22:43:47.727Z,114.82
2019-03-01T22:46:15.450Z,126.92
2019-03-01T22:48:47.043Z,131.60
2019-03-01T22:51:14.566Z,140.95
2019-03-01T22:53:43.742Z,142.07
2019-03-01T22:56:12.059Z,151.55
2019-03-01T22:58:40.822Z,132.03
2019-03-01T23:01:22.178Z,117.62
2019-03-01T23:03:58.521Z,113.47
2019-03-01T23:06:26.473Z,109.57
2019-03-01T23:08:54.764Z,94.25
2019-03-01T23:11:22.507Z,79.07
2019-03-01T23:13:52.797Z,82.80
2019-03-01T23:16:23.638Z,83.60
2019-03-01T23:18:56.750Z,90.45
2019-03-01T23:21:21.546Z,90.72
2019-03-01T23:23:50.089Z,99.62
2019-03-01T23:26:18.607Z,98.52
2019-03-01T23:28:47.609Z,92.00
2019-03-01T23:31:15.492Z,94.83
2019-03-01T23:33:43.291Z,100.55
2019-03-01T23:36:11.902Z,91.40
2019-03-01T23:38:40.355Z,94.45
2019-03-01T23:41:11.398Z,90.22
2019-03-01T23:43:38.242Z,92.65
2019-03-01T23:46:06.288Z,98.72
2019-03-01T23:48:34.319Z,99.67
2019-03-01T23:51:02.228Z,106.07
2019-03-01T23:53:30.831Z,116.65
2019-03-01T23:55:59.888Z,106.60
2019-03-01T23:58:27.741Z,138.90
